Time;durP1;ratioP1;P1;durP2;ratioP2;P2;SDS_P1;SDS_P2;PMS_P1;PMS_P2;Temp;Humidity;BMP_temperature;BMP_pressure;BME280_temperature;BME280_humidity;BME280_pressure;Samples;Min_cycle;Max_cycle;Signal;HPM_P1;HPM_P2
2021/11/02 00:01:01;;;;;;;;;;;;;;;;;;5086215;28;19949;-48
2021/11/02 00:03:28;;;;;;;;;;;;;;;;;;5085507;28;19904;-50
2021/11/02 00:05:54;;;;;;;;;;;;;;;;;;5082913;28;19961;-51
2021/11/02 00:08:20;;;;;;;;;;;;;;;;;;5064103;28;19905;-46
2021/11/02 00:10:46;;;;;;;;;;;;;;;;;;5066148;28;19947;-48
2021/11/02 00:13:12;;;;;;;;;;;;;;;;;;5063793;28;19908;-47
2021/11/02 00:15:39;;;;;;;;;;;;;;;;;;5065606;28;19915;-49
2021/11/02 00:18:07;;;;;;;;;;;;;;;;;;5078035;28;19908;-52
2021/11/02 00:20:34;;;;;;;;;;;;;;;;;;5079549;28;19912;-51
2021/11/02 00:23:02;;;;;;;;;;;;;;;;;;5085841;28;19957;-49
2021/11/02 00:25:28;;;;;;;;;;;;;;;;;;5084477;28;19908;-51
2021/11/02 00:27:55;;;;;;;;;;;;;;;;;;5085422;28;19904;-52
2021/11/02 00:30:21;;;;;;;;;;;;;;;;;;5084388;28;20296;-50
2021/11/02 00:32:47;;;;;;;;;;;;;;;;;;5086718;28;19908;-51
2021/11/02 00:35:13;;;;;;;;;;;;;;;;;;5086182;28;19903;-50
2021/11/02 00:37:39;;;;;;;;;;;;;;;;;;5086094;28;20590;-51
2021/11/02 00:40:06;;;;;;;;;;;;;;;;;;5085810;28;19911;-48
2021/11/02 00:42:39;;;;;;;;;;;;;;;;;;5085607;28;19908;-50
2021/11/02 00:45:05;;;;;;;;;;;;;;;;;;5085529;28;19987;-48
2021/11/02 00:47:32;;;;;;;;;;;;;;;;;;5086314;28;19995;-51
2021/11/02 00:49:58;;;;;;;;;;;;;;;;;;5084861;28;20010;-48
2021/11/02 00:52:24;;;;;;;;;;;;;;;;;;5085607;28;19987;-51
2021/11/02 00:54:50;;;;;;;;;;;;;;;;;;5085792;28;19904;-51
2021/11/02 00:57:16;;;;;;;;;;;;;;;;;;5085050;28;19969;-49
2021/11/02 00:59:43;;;;;;;;;;;;;;;;;;5085554;28;20387;-51
2021/11/02 01:02:09;;;;;;;;;;;;;;;;;;5084249;28;19908;-51
2021/11/02 01:04:35;;;;;;;;;;;;;;;;;;5085564;28;19991;-51
2021/11/02 01:07:02;;;;;;;;;;;;;;;;;;5083972;28;19999;-50
2021/11/02 01:09:28;;;;;;;;;;;;;;;;;;5084220;28;19959;-50
2021/11/02 01:11:55;;;;;;;;;;;;;;;;;;5085388;28;19985;-48
2021/11/02 01:14:21;;;;;;;;;;;;;;;;;;5085680;28;19950;-51
2021/11/02 01:16:47;;;;;;;;;;;;;;;;;;5086132;28;19943;-48
2021/11/02 01:19:13;;;;;;;;;;;;;;;;;;5085592;28;19914;-49
2021/11/02 01:21:40;;;;;;;;;;;;;;;;;;5085285;28;19907;-49
2021/11/02 01:24:06;;;;;;;;;;;;;;;;;;5085279;28;19911;-48
2021/11/02 01:26:32;;;;;;;;;;;;;;;;;;5085268;28;19909;-50
2021/11/02 01:28:57;;;;;;;;;;;;;;;;;;5085255;28;20275;-49
2021/11/02 01:31:24;;;;;;;;;;;;;;;;;;5085288;28;20278;-50
2021/11/02 01:33:50;;;;;;;;;;;;;;;;;;5083856;28;20401;-50
2021/11/02 01:36:16;;;;;;;;;;;;;;;;;;5085706;28;19981;-48
2021/11/02 01:38:45;;;;;;;;;;;;;;;;;;5085464;28;19915;-48
2021/11/02 01:41:11;;;;;;;;;;;;;;;;;;5084980;28;20432;-50
2021/11/02 01:43:37;;;;;;;;;;;;;;;;;;5083463;28;20330;-50
2021/11/02 01:46:03;;;;;;;;;;;;;;;;;;5087338;28;19908;-47
2021/11/02 01:48:29;;;;;;;;;;;;;;;;;;5088459;28;19904;-48
2021/11/02 01:50:55;;;;;;;;;;;;;;;;;;5089150;28;20418;-47
2021/11/02 01:53:20;;;;;;;;;;;;;;;;;;5088992;28;19942;-50
2021/11/02 01:55:46;;;;;;;;;;;;;;;;;;5089275;28;19914;-50
2021/11/02 01:58:14;;;;;;;;;;;;;;;;;;5088469;28;19992;-49
2021/11/02 02:00:41;;;;;;;;;;;;;;;;;;5088662;28;19911;-48
2021/11/02 02:03:06;;;;;;;;;;;;;;;;;;5088600;28;19908;-52
2021/11/02 02:05:35;;;;;;;;;;;;;;;;;;5088790;28;19950;-50
2021/11/02 02:08:02;;;;;;;;;;;;;;;;;;5088398;28;20466;-50
2021/11/02 02:10:28;;;;;;;;;;;;;;;;;;5088514;28;20283;-52
2021/11/02 02:12:54;;;;;;;;;;;;;;;;;;5088253;28;19911;-52
2021/11/02 02:15:20;;;;;;;;;;;;;;;;;;5088279;28;19904;-48
2021/11/02 02:17:46;;;;;;;;;;;;;;;;;;5088953;28;19908;-50
2021/11/02 02:20:12;;;;;;;;;;;;;;;;;;5088430;28;19900;-48
2021/11/02 02:22:38;;;;;;;;;;;;;;;;;;5088443;28;20367;-49
2021/11/02 02:25:04;;;;;;;;;;;;;;;;;;5088132;28;19943;-50
2021/11/02 02:27:30;;;;;;;;;;;;;;;;;;5088298;28;19987;-51
2021/11/02 02:29:56;;;;;;;;;;;;;;;;;;5088209;28;19914;-50
2021/11/02 02:32:22;;;;;;;;;;;;;;;;;;5088084;28;20509;-49
2021/11/02 02:34:50;;;;;;;;;;;;;;;;;;5088766;28;20333;-49
2021/11/02 02:37:16;;;;;;;;;;;;;;;;;;5088325;28;20296;-49
2021/11/02 02:39:42;;;;;;;;;;;;;;;;;;5088061;28;19908;-52
2021/11/02 02:42:08;;;;;;;;;;;;;;;;;;5087570;28;19912;-51
2021/11/02 02:44:34;;;;;;;;;;;;;;;;;;5088042;28;19911;-49
2021/11/02 02:47:00;;;;;;;;;;;;;;;;;;5087709;28;19911;-48
2021/11/02 02:49:26;;;;;;;;;;;;;;;;;;5087367;28;19904;-50
2021/11/02 02:51:52;;;;;;;;;;;;;;;;;;5087756;28;19908;-48
2021/11/02 02:54:18;;;;;;;;;;;;;;;;;;5087736;28;19904;-48
2021/11/02 02:56:48;;;;;;;;;;;;;;;;;;5088265;28;19903;-50
2021/11/02 02:59:14;;;;;;;;;;;;;;;;;;5088204;28;19907;-49
2021/11/02 03:01:40;;;;;;;;;;;;;;;;;;5086200;28;19908;-48
2021/11/02 03:04:06;;;;;;;;;;;;;;;;;;5087505;28;19908;-51
2021/11/02 03:06:33;;;;;;;;;;;;;;;;;;5086188;28;20375;-50
2021/11/02 03:08:59;;;;;;;;;;;;;;;;;;5087611;28;19912;-49
2021/11/02 03:11:25;;;;;;;;;;;;;;;;;;5087386;28;19908;-49
2021/11/02 03:13:51;;;;;;;;;;;;;;;;;;5087488;28;19931;-50
2021/11/02 03:16:19;;;;;;;;;;;;;;;;;;5087904;28;20035;-51
2021/11/02 03:51:19;;;;;;;;;;;;;;;;;;5086515;28;19950;-50
2021/11/02 04:02:14;;;;;;;;;;;;;;;;;;5086883;28;19928;-52
2021/11/02 05:58:50;;;;;;;;;;;;;;;;;;5090340;28;20294;-51
2021/11/02 06:28:27;;;;;;;;;;;;;;;;;;5075027;28;19954;-51
2021/11/02 06:33:34;;;;;;;;;;;;;;;;;;5082151;28;19996;-51
2021/11/02 06:39:14;;;;;;;;;;;;;;;;;;5070912;28;19904;-50
2021/11/02 06:47:21;;;;;;;;;;;;;;;;;;5088920;28;19977;-52
2021/11/02 07:19:00;;;;;;;;;;;;;;;;;;5068341;28;19904;-51
2021/11/02 07:21:35;;;;;;;;;;;;;;;;;;5074499;28;19908;-49
2021/11/02 07:24:07;;;;;;;;;;;;;;;;;;5086545;28;19931;-53
2021/11/02 08:46:31;;;;;;;;;;;;;;;;;;5075551;28;19962;-51
2021/11/02 08:48:59;;;;;;;;;;;;;;;;;;5065900;28;20092;-51
2021/11/02 08:51:25;;;;;;;;;;;;;;;;;;5066600;28;20425;-52
2021/11/02 08:53:52;;;;;;;;;;;;;;;;;;5066549;28;19999;-50
2021/11/02 08:56:18;;;;;;;;;;;;;;;;;;5074349;28;20286;-52
2021/11/02 08:58:45;;;;;;;;;;;;;;;;;;5086119;28;19912;-50
2021/11/02 09:01:11;;;;;;;;;;;;;;;;;;5086638;28;20011;-49
2021/11/02 09:03:37;;;;;;;;;;;;;;;;;;5086797;28;19994;-51
2021/11/02 09:06:05;;;;;;;;;;;;;;;;;;5085875;28;19911;-50
2021/11/02 09:08:31;;;;;;;;;;;;;;;;;;5086364;28;19915;-51
2021/11/02 09:10:57;;;;;;;;;;;;;;;;;;5083179;28;19912;-50
2021/11/02 09:13:23;;;;;;;;;;;;;;;;;;5068758;28;20406;-52
2021/11/02 09:15:49;;;;;;;;;;;;;;;;;;5067038;28;19959;-52
2021/11/02 09:18:15;;;;;;;;;;;;;;;;;;5066334;28;19940;-52
2021/11/02 09:20:41;;;;;;;;;;;;;;;;;;5066542;28;19908;-51
2021/11/02 09:23:07;;;;;;;;;;;;;;;;;;5077917;28;19908;-52
2021/11/02 09:25:32;;;;;;;;;;;;;;;;;;5081701;28;19911;-54
2021/11/02 09:27:58;;;;;;;;;;;;;;;;;;5065693;28;19943;-51
2021/11/02 09:30:25;;;;;;;;;;;;;;;;;;5064813;28;19912;-50
2021/11/02 09:32:51;;;;;;;;;;;;;;;;;;5067539;28;19909;-50
2021/11/02 09:35:17;;;;;;;;;;;;;;;;;;5066718;28;20264;-49
2021/11/02 09:37:43;;;;;;;;;;;;;;;;;;5066235;28;20311;-50
2021/11/02 09:40:09;;;;;;;;;;;;;;;;;;5066116;28;19909;-52
2021/11/02 09:42:35;;;;;;;;;;;;;;;;;;5069691;28;20393;-51
2021/11/02 09:45:01;;;;;;;;;;;;;;;;;;5086115;28;20401;-52
2021/11/02 09:47:28;;;;;;;;;;;;;;;;;;5086536;28;20661;-51
2021/11/02 09:49:54;;;;;;;;;;;;;;;;;;5083875;28;19904;-52
2021/11/02 09:52:20;;;;;;;;;;;;;;;;;;5075025;28;20062;-52
2021/11/02 09:54:46;;;;;;;;;;;;;;;;;;5066135;28;19916;-50
2021/11/02 09:57:13;;;;;;;;;;;;;;;;;;5065426;28;19912;-50
2021/11/02 09:59:40;;;;;;;;;;;;;;;;;;5065522;28;19908;-52
2021/11/02 10:02:06;;;;;;;;;;;;;;;;;;5065911;28;19915;-53
2021/11/02 10:04:34;;;;;;;;;;;;;;;;;;5066057;28;19987;-49
2021/11/02 10:07:01;;;;;;;;;;;;;;;;;;5066559;28;19904;-50
2021/11/02 10:09:27;;;;;;;;;;;;;;;;;;5069821;28;20152;-49
2021/11/02 10:11:53;;;;;;;;;;;;;;;;;;5079622;28;19915;-49
2021/11/02 10:14:20;;;;;;;;;;;;;;;;;;5079860;28;19999;-49
2021/11/02 10:16:47;;;;;;;;;;;;;;;;;;5102325;28;19907;-48
2021/11/02 10:19:13;;;;;;;;;;;;;;;;;;5109627;28;19919;-50
2021/11/02 10:21:40;;;;;;;;;;;;;;;;;;5110541;28;19903;-50
2021/11/02 10:24:06;;;;;;;;;;;;;;;;;;5109717;28;20040;-49
2021/11/02 10:26:33;;;;;;;;;;;;;;;;;;5077383;27;19999;-48
2021/11/02 10:28:59;;;;;;;;;;;;;;;;;;5071039;28;20272;-52
2021/11/02 10:31:25;;;;;;;;;;;;;;;;;;5079201;28;19919;-52
2021/11/02 10:33:52;;;;;;;;;;;;;;;;;;5081392;28;19958;-49
2021/11/02 10:36:18;;;;;;;;;;;;;;;;;;5075997;28;20387;-49
2021/11/02 10:38:44;;;;;;;;;;;;;;;;;;5085194;28;19912;-53
2021/11/02 10:41:16;;;;;;;;;;;;;;;;;;5072413;28;19909;-50
2021/11/02 10:43:42;;;;;;;;;;;;;;;;;;5070384;28;19904;-52
2021/11/02 10:46:08;;;;;;;;;;;;;;;;;;5080068;28;19912;-52
2021/11/02 10:48:35;;;;;;;;;;;;;;;;;;5079380;28;19996;-49
2021/11/02 10:51:01;;;;;;;;;;;;;;;;;;5074855;28;19912;-51
2021/11/02 10:53:27;;;;;;;;;;;;;;;;;;5068803;28;19914;-52
2021/11/02 10:55:54;;;;;;;;;;;;;;;;;;5068920;28;20375;-50
2021/11/02 10:58:20;;;;;;;;;;;;;;;;;;5069203;28;19904;-51
2021/11/02 11:00:46;;;;;;;;;;;;;;;;;;5069419;28;19969;-49
2021/11/02 11:03:11;;;;;;;;;;;;;;;;;;5068418;28;20272;-50
2021/11/02 11:05:38;;;;;;;;;;;;;;;;;;5070943;28;19912;-52
2021/11/02 11:08:04;;;;;;;;;;;;;;;;;;5078912;28;19961;-52
2021/11/02 11:10:30;;;;;;;;;;;;;;;;;;5077648;28;19916;-52
2021/11/02 11:12:56;;;;;;;;;;;;;;;;;;5081019;28;19907;-52
2021/11/02 11:15:22;;;;;;;;;;;;;;;;;;5088834;28;19929;-53
2021/11/02 11:17:48;;;;;;;;;;;;;;;;;;5087536;28;20002;-50
2021/11/02 11:20:14;;;;;;;;;;;;;;;;;;5088251;28;19908;-52
2021/11/02 11:22:40;;;;;;;;;;;;;;;;;;5078275;28;19915;-51
2021/11/02 11:25:06;;;;;;;;;;;;;;;;;;5068293;28;19909;-53
2021/11/02 11:27:32;;;;;;;;;;;;;;;;;;5071733;28;19915;-52
2021/11/02 11:29:58;;;;;;;;;;;;;;;;;;5088473;28;19908;-52
2021/11/02 11:32:24;;;;;;;;;;;;;;;;;;5088381;28;20005;-52
2021/11/02 11:34:50;;;;;;;;;;;;;;;;;;5088827;28;19904;-54
2021/11/02 11:37:16;;;;;;;;;;;;;;;;;;5088728;28;19911;-52
2021/11/02 11:39:44;;;;;;;;;;;;;;;;;;5088086;28;19915;-50
2021/11/02 11:42:10;;;;;;;;;;;;;;;;;;5087813;28;19915;-49
2021/11/02 11:44:36;;;;;;;;;;;;;;;;;;5088141;28;19904;-49
2021/11/02 11:47:02;;;;;;;;;;;;;;;;;;5074806;28;19914;-51
2021/11/02 11:49:28;;;;;;;;;;;;;;;;;;5079160;28;19915;-49
2021/11/02 11:51:54;;;;;;;;;;;;;;;;;;5075258;28;19919;-53
2021/11/02 11:54:20;;;;;;;;;;;;;;;;;;5076448;28;19914;-48
2021/11/02 11:56:46;;;;;;;;;;;;;;;;;;5087794;28;20002;-50
2021/11/02 11:59:12;;;;;;;;;;;;;;;;;;5083448;28;19962;-50
2021/11/02 12:01:38;;;;;;;;;;;;;;;;;;5067636;28;19921;-50
2021/11/02 12:04:04;;;;;;;;;;;;;;;;;;5066130;28;19912;-48
2021/11/02 12:06:31;;;;;;;;;;;;;;;;;;5065597;28;19995;-51
2021/11/02 12:08:56;;;;;;;;;;;;;;;;;;5065385;28;20284;-52
2021/11/02 12:11:22;;;;;;;;;;;;;;;;;;5065465;28;19915;-51
2021/11/02 12:13:48;;;;;;;;;;;;;;;;;;5078027;28;19967;-50
2021/11/02 12:16:27;;;;;;;;;;;;;;;;;;5085439;28;19953;-52
2021/11/02 12:18:53;;;;;;;;;;;;;;;;;;5085529;28;19908;-49
2021/11/02 12:21:19;;;;;;;;;;;;;;;;;;5079179;28;19919;-50
2021/11/02 12:23:47;;;;;;;;;;;;;;;;;;5065361;28;19955;-53
2021/11/02 12:26:13;;;;;;;;;;;;;;;;;;5080846;28;20237;-48
2021/11/02 12:28:41;;;;;;;;;;;;;;;;;;5071766;28;19951;-51
2021/11/02 12:31:08;;;;;;;;;;;;;;;;;;5064878;28;19914;-51
2021/11/02 12:33:34;;;;;;;;;;;;;;;;;;5075498;28;19964;-49
2021/11/02 12:36:02;;;;;;;;;;;;;;;;;;5085192;28;19957;-53
2021/11/02 12:38:29;;;;;;;;;;;;;;;;;;5079960;28;20394;-52
2021/11/02 12:40:56;;;;;;;;;;;;;;;;;;5066830;28;19905;-52
2021/11/02 12:43:23;;;;;;;;;;;;;;;;;;5064907;28;19911;-52
2021/11/02 12:45:48;;;;;;;;;;;;;;;;;;5065580;28;20007;-52
2021/11/02 12:48:15;;;;;;;;;;;;;;;;;;5064126;28;20430;-50
2021/11/02 12:50:42;;;;;;;;;;;;;;;;;;5065378;28;19912;-53
2021/11/02 12:53:08;;;;;;;;;;;;;;;;;;5064921;28;19908;-52
2021/11/02 12:55:34;;;;;;;;;;;;;;;;;;5063456;28;19912;-51
2021/11/02 12:58:00;;;;;;;;;;;;;;;;;;5064039;28;20001;-48
2021/11/02 13:00:29;;;;;;;;;;;;;;;;;;5065068;28;19955;-50
2021/11/02 13:02:56;;;;;;;;;;;;;;;;;;5064904;28;19955;-52
2021/11/02 13:05:22;;;;;;;;;;;;;;;;;;5064596;28;19914;-52
2021/11/02 13:07:48;;;;;;;;;;;;;;;;;;5065952;28;19916;-50
2021/11/02 13:10:15;;;;;;;;;;;;;;;;;;5085094;28;19963;-50
2021/11/02 13:12:41;;;;;;;;;;;;;;;;;;5083677;28;20300;-52
2021/11/02 13:15:11;;;;;;;;;;;;;;;;;;5084526;28;19947;-51
2021/11/02 13:17:37;;;;;;;;;;;;;;;;;;5085148;28;19943;-49
2021/11/02 13:20:04;;;;;;;;;;;;;;;;;;5065617;28;19919;-51
2021/11/02 13:22:31;;;;;;;;;;;;;;;;;;5063877;28;19904;-52
2021/11/02 13:24:56;;;;;;;;;;;;;;;;;;5064257;28;20372;-50
2021/11/02 13:27:22;;;;;;;;;;;;;;;;;;5065124;28;19912;-51
2021/11/02 13:29:49;;;;;;;;;;;;;;;;;;5065360;28;19962;-51
2021/11/02 13:32:16;;;;;;;;;;;;;;;;;;5065004;28;19958;-51
2021/11/02 13:34:42;;;;;;;;;;;;;;;;;;5064712;28;19911;-51
2021/11/02 13:37:10;;;;;;;;;;;;;;;;;;5064552;28;20537;-52
2021/11/02 13:39:36;;;;;;;;;;;;;;;;;;5069139;28;19915;-50
2021/11/02 13:42:03;;;;;;;;;;;;;;;;;;5086961;28;19904;-50
2021/11/02 13:44:29;;;;;;;;;;;;;;;;;;5088406;28;19914;-52
2021/11/02 13:46:56;;;;;;;;;;;;;;;;;;5088557;28;19904;-51
2021/11/02 13:49:22;;;;;;;;;;;;;;;;;;5078142;28;19953;-49
2021/11/02 13:51:49;;;;;;;;;;;;;;;;;;5068853;28;19912;-53
2021/11/02 13:54:16;;;;;;;;;;;;;;;;;;5067190;28;20368;-51
2021/11/02 13:56:43;;;;;;;;;;;;;;;;;;5088010;28;19915;-51
2021/11/02 13:59:09;;;;;;;;;;;;;;;;;;5088377;28;19994;-52
2021/11/02 14:01:35;;;;;;;;;;;;;;;;;;5088722;28;20006;-50
2021/11/02 14:04:01;;;;;;;;;;;;;;;;;;5087842;28;20328;-50
2021/11/02 14:06:28;;;;;;;;;;;;;;;;;;5070257;28;19918;-51
2021/11/02 14:08:55;;;;;;;;;;;;;;;;;;5067918;28;20298;-51
2021/11/02 14:11:21;;;;;;;;;;;;;;;;;;5067716;28;19912;-52
2021/11/02 14:13:47;;;;;;;;;;;;;;;;;;5076257;28;19930;-51
2021/11/02 14:16:14;;;;;;;;;;;;;;;;;;5072614;28;19935;-50
2021/11/02 14:18:40;;;;;;;;;;;;;;;;;;5066063;28;20002;-53
2021/11/02 14:21:06;;;;;;;;;;;;;;;;;;5067515;28;19927;-52
2021/11/02 14:23:33;;;;;;;;;;;;;;;;;;5067360;28;19979;-51
2021/11/02 14:26:00;;;;;;;;;;;;;;;;;;5065585;28;19912;-51
2021/11/02 14:28:26;;;;;;;;;;;;;;;;;;5067606;28;19904;-53
2021/11/02 14:30:52;;;;;;;;;;;;;;;;;;5067573;28;19908;-51
2021/11/02 14:33:19;;;;;;;;;;;;;;;;;;5067683;28;19912;-49
2021/11/02 14:35:45;;;;;;;;;;;;;;;;;;5067662;28;20380;-51
2021/11/02 14:38:11;;;;;;;;;;;;;;;;;;5067073;28;20430;-52
2021/11/02 14:40:37;;;;;;;;;;;;;;;;;;5067327;28;19920;-51
2021/11/02 14:43:04;;;;;;;;;;;;;;;;;;5066897;28;19908;-51
2021/11/02 14:45:30;;;;;;;;;;;;;;;;;;5066118;28;20391;-50
2021/11/02 14:47:55;;;;;;;;;;;;;;;;;;5065429;28;19914;-53
2021/11/02 14:50:21;;;;;;;;;;;;;;;;;;5074894;28;19908;-52
2021/11/02 14:52:47;;;;;;;;;;;;;;;;;;5071444;28;19912;-51
2021/11/02 14:55:14;;;;;;;;;;;;;;;;;;5065536;28;19915;-52
2021/11/02 14:57:41;;;;;;;;;;;;;;;;;;5067261;28;19947;-49
2021/11/02 15:00:07;;;;;;;;;;;;;;;;;;5074532;28;20707;-52
2021/11/02 15:02:33;;;;;;;;;;;;;;;;;;5069478;28;19916;-51
2021/11/02 15:05:04;;;;;;;;;;;;;;;;;;5065105;28;20437;-52
2021/11/02 15:07:31;;;;;;;;;;;;;;;;;;5066914;28;19930;-49
2021/11/02 15:09:57;;;;;;;;;;;;;;;;;;5066307;28;19912;-48
2021/11/02 15:12:22;;;;;;;;;;;;;;;;;;5068793;28;19923;-52
2021/11/02 15:14:48;;;;;;;;;;;;;;;;;;5087461;28;19908;-51
2021/11/02 15:17:14;;;;;;;;;;;;;;;;;;5078651;28;19908;-51
2021/11/02 15:19:40;;;;;;;;;;;;;;;;;;5067053;28;19935;-52
2021/11/02 15:22:06;;;;;;;;;;;;;;;;;;5066593;28;19943;-51
2021/11/02 15:24:32;;;;;;;;;;;;;;;;;;5067513;28;20359;-52
2021/11/02 15:26:58;;;;;;;;;;;;;;;;;;5077126;28;20010;-49
2021/11/02 15:29:24;;;;;;;;;;;;;;;;;;5078552;28;19948;-52
2021/11/02 15:31:50;;;;;;;;;;;;;;;;;;5065092;28;19912;-52
2021/11/02 15:34:16;;;;;;;;;;;;;;;;;;5068127;28;19904;-51
2021/11/02 15:36:42;;;;;;;;;;;;;;;;;;5066383;28;19909;-52
2021/11/02 15:39:08;;;;;;;;;;;;;;;;;;5064595;28;19915;-52
2021/11/02 15:41:34;;;;;;;;;;;;;;;;;;5065000;28;19908;-50
2021/11/02 15:44:00;;;;;;;;;;;;;;;;;;5066444;28;20327;-51
2021/11/02 15:46:26;;;;;;;;;;;;;;;;;;5066523;28;19953;-51
2021/11/02 15:48:53;;;;;;;;;;;;;;;;;;5065004;28;20363;-50
2021/11/02 15:51:19;;;;;;;;;;;;;;;;;;5066127;28;19958;-49
2021/11/02 15:53:46;;;;;;;;;;;;;;;;;;5066363;28;19972;-51
2021/11/02 15:56:13;;;;;;;;;;;;;;;;;;5064137;28;19922;-48
2021/11/02 15:58:39;;;;;;;;;;;;;;;;;;5065953;28;19908;-52
2021/11/02 16:01:05;;;;;;;;;;;;;;;;;;5068449;28;20500;-52
2021/11/02 16:03:31;;;;;;;;;;;;;;;;;;5069601;28;19908;-52
2021/11/02 16:05:57;;;;;;;;;;;;;;;;;;5067511;28;20283;-52
2021/11/02 16:08:23;;;;;;;;;;;;;;;;;;5066960;28;19904;-50
2021/11/02 16:10:49;;;;;;;;;;;;;;;;;;5066799;28;19927;-52
2021/11/02 16:13:16;;;;;;;;;;;;;;;;;;5065557;28;19920;-52
2021/11/02 16:15:41;;;;;;;;;;;;;;;;;;5066066;28;20413;-53
2021/11/02 16:18:08;;;;;;;;;;;;;;;;;;5065797;28;19998;-49
2021/11/02 16:20:35;;;;;;;;;;;;;;;;;;5066063;28;19961;-50
2021/11/02 16:23:01;;;;;;;;;;;;;;;;;;5065913;28;19912;-52
2021/11/02 16:25:27;;;;;;;;;;;;;;;;;;5065876;28;19908;-51
2021/11/02 16:27:53;;;;;;;;;;;;;;;;;;5065922;28;19950;-52
2021/11/02 16:30:19;;;;;;;;;;;;;;;;;;5066617;28;19915;-51
2021/11/02 16:32:46;;;;;;;;;;;;;;;;;;5065943;28;19904;-51
2021/11/02 16:35:13;;;;;;;;;;;;;;;;;;5065411;28;19957;-48
2021/11/02 16:37:40;;;;;;;;;;;;;;;;;;5065875;28;19908;-49
2021/11/02 16:40:05;;;;;;;;;;;;;;;;;;5065433;28;19928;-51
2021/11/02 16:42:31;;;;;;;;;;;;;;;;;;5065537;28;20197;-50
2021/11/02 16:44:57;;;;;;;;;;;;;;;;;;5065665;28;19908;-49
2021/11/02 16:47:24;;;;;;;;;;;;;;;;;;5065657;28;19904;-48
2021/11/02 16:49:51;;;;;;;;;;;;;;;;;;5065944;28;20330;-53
2021/11/02 16:52:17;;;;;;;;;;;;;;;;;;5066929;28;19919;-53
2021/11/02 16:54:43;;;;;;;;;;;;;;;;;;5067021;28;19905;-53
2021/11/02 16:57:09;;;;;;;;;;;;;;;;;;5066024;28;19916;-51
2021/11/02 16:59:35;;;;;;;;;;;;;;;;;;5065093;28;19911;-50
2021/11/02 17:02:01;;;;;;;;;;;;;;;;;;5067050;28;19908;-53
2021/11/02 17:04:28;;;;;;;;;;;;;;;;;;5076403;28;19915;-51
2021/11/02 17:06:54;;;;;;;;;;;;;;;;;;5085531;28;19908;-51
2021/11/02 17:09:20;;;;;;;;;;;;;;;;;;5085743;28;19915;-52
2021/11/02 17:11:47;;;;;;;;;;;;;;;;;;5085913;28;19908;-50
2021/11/02 17:14:13;;;;;;;;;;;;;;;;;;5084127;28;19954;-53
2021/11/02 17:16:39;;;;;;;;;;;;;;;;;;5082727;28;19915;-52
2021/11/02 17:19:06;;;;;;;;;;;;;;;;;;5077175;28;19917;-52
2021/11/02 17:21:33;;;;;;;;;;;;;;;;;;5080096;28;19904;-53
2021/11/02 17:23:58;;;;;;;;;;;;;;;;;;5086735;28;19904;-52
2021/11/02 17:26:24;;;;;;;;;;;;;;;;;;5082888;28;20007;-52
2021/11/02 17:28:50;;;;;;;;;;;;;;;;;;5082217;28;19935;-54
2021/11/02 17:31:16;;;;;;;;;;;;;;;;;;5073606;28;19920;-53
2021/11/02 17:33:42;;;;;;;;;;;;;;;;;;5073146;28;19943;-53
2021/11/02 17:36:08;;;;;;;;;;;;;;;;;;5072513;28;19908;-51
2021/11/02 17:38:34;;;;;;;;;;;;;;;;;;5076012;28;20387;-52
2021/11/02 17:41:00;;;;;;;;;;;;;;;;;;5076694;28;19954;-53
2021/11/02 17:43:26;;;;;;;;;;;;;;;;;;5071480;28;19995;-53
2021/11/02 17:45:52;;;;;;;;;;;;;;;;;;5071893;28;19920;-52
2021/11/02 17:48:18;;;;;;;;;;;;;;;;;;5071322;28;19904;-53
2021/11/02 17:50:44;;;;;;;;;;;;;;;;;;5071403;28;19918;-52
2021/11/02 17:53:11;;;;;;;;;;;;;;;;;;5069714;28;19952;-53
2021/11/02 17:55:37;;;;;;;;;;;;;;;;;;5070056;28;19951;-53
2021/11/02 17:58:05;;;;;;;;;;;;;;;;;;5069872;28;19951;-50
2021/11/02 18:00:31;;;;;;;;;;;;;;;;;;5070119;28;20291;-53
2021/11/02 18:02:57;;;;;;;;;;;;;;;;;;5069529;28;19904;-53
2021/11/02 18:05:23;;;;;;;;;;;;;;;;;;5069935;28;19912;-49
2021/11/02 18:07:49;;;;;;;;;;;;;;;;;;5070426;28;20353;-49
2021/11/02 18:10:15;;;;;;;;;;;;;;;;;;5069470;28;19916;-51
2021/11/02 18:12:41;;;;;;;;;;;;;;;;;;5076307;28;20500;-49
2021/11/02 18:15:07;;;;;;;;;;;;;;;;;;5089782;28;19990;-49
2021/11/02 18:17:34;;;;;;;;;;;;;;;;;;5090002;28;19904;-51
2021/11/02 18:20:01;;;;;;;;;;;;;;;;;;5089746;28;19908;-50
2021/11/02 18:22:28;;;;;;;;;;;;;;;;;;5089844;28;19951;-54
2021/11/02 18:24:54;;;;;;;;;;;;;;;;;;5089412;28;19999;-53
2021/11/02 18:27:21;;;;;;;;;;;;;;;;;;5089258;28;19999;-49
2021/11/02 18:29:48;;;;;;;;;;;;;;;;;;5074701;28;19919;-49
2021/11/02 18:32:14;;;;;;;;;;;;;;;;;;5069235;28;20330;-53
2021/11/02 18:34:40;;;;;;;;;;;;;;;;;;5069389;28;19915;-49
2021/11/02 18:37:06;;;;;;;;;;;;;;;;;;5069017;28;19908;-54
2021/11/02 18:39:32;;;;;;;;;;;;;;;;;;5069229;28;19904;-52
2021/11/02 18:41:59;;;;;;;;;;;;;;;;;;5069009;28;19904;-53
2021/11/02 18:44:25;;;;;;;;;;;;;;;;;;5069104;28;20422;-51
2021/11/02 18:46:51;;;;;;;;;;;;;;;;;;5068843;28;19948;-53
2021/11/02 18:49:17;;;;;;;;;;;;;;;;;;5071319;28;20669;-54
2021/11/02 18:51:43;;;;;;;;;;;;;;;;;;5073503;28;20412;-52
2021/11/02 18:54:09;;;;;;;;;;;;;;;;;;5079674;28;19908;-53
2021/11/02 18:56:35;;;;;;;;;;;;;;;;;;5106233;28;19904;-52
2021/11/02 18:59:01;;;;;;;;;;;;;;;;;;5094682;28;19908;-52
2021/11/02 19:01:27;;;;;;;;;;;;;;;;;;5102032;28;19914;-50
2021/11/02 19:03:53;;;;;;;;;;;;;;;;;;5101968;28;20371;-52
2021/11/02 19:06:19;;;;;;;;;;;;;;;;;;5086018;28;19908;-53
2021/11/02 19:08:45;;;;;;;;;;;;;;;;;;5068051;28;19920;-51
2021/11/02 19:11:11;;;;;;;;;;;;;;;;;;5077191;28;19916;-50
2021/11/02 19:13:37;;;;;;;;;;;;;;;;;;5079080;28;20399;-52
2021/11/02 19:16:03;;;;;;;;;;;;;;;;;;5071124;28;19931;-49
2021/11/02 19:18:29;;;;;;;;;;;;;;;;;;5077472;28;19920;-49
2021/11/02 19:20:55;;;;;;;;;;;;;;;;;;5082443;28;19911;-51
2021/11/02 19:23:21;;;;;;;;;;;;;;;;;;5073297;28;19908;-51
2021/11/02 19:25:48;;;;;;;;;;;;;;;;;;5077674;28;19912;-52
2021/11/02 19:28:14;;;;;;;;;;;;;;;;;;5075949;28;19911;-54
2021/11/02 19:30:40;;;;;;;;;;;;;;;;;;5083114;28;19915;-52
2021/11/02 19:33:06;;;;;;;;;;;;;;;;;;5088359;28;19957;-53
2021/11/02 19:35:32;;;;;;;;;;;;;;;;;;5091501;28;19908;-52
2021/11/02 19:37:58;;;;;;;;;;;;;;;;;;5096585;28;20486;-52
2021/11/02 19:40:24;;;;;;;;;;;;;;;;;;5107451;28;19962;-53
2021/11/02 19:42:50;;;;;;;;;;;;;;;;;;5108420;28;19911;-53
2021/11/02 19:45:16;;;;;;;;;;;;;;;;;;5104109;28;19943;-49
2021/11/02 19:47:42;;;;;;;;;;;;;;;;;;5067477;28;19908;-53
2021/11/02 19:50:08;;;;;;;;;;;;;;;;;;5067020;28;19911;-53
2021/11/02 19:52:34;;;;;;;;;;;;;;;;;;5076327;28;20382;-52
2021/11/02 19:55:00;;;;;;;;;;;;;;;;;;5087398;28;19911;-51
2021/11/02 19:57:26;;;;;;;;;;;;;;;;;;5082772;28;19908;-50
2021/11/02 19:59:52;;;;;;;;;;;;;;;;;;5066530;28;19908;-50
2021/11/02 20:02:18;;;;;;;;;;;;;;;;;;5068061;28;19915;-50
2021/11/02 20:04:44;;;;;;;;;;;;;;;;;;5070122;28;19908;-53
2021/11/02 20:07:10;;;;;;;;;;;;;;;;;;5083322;28;19912;-50
2021/11/02 20:09:36;;;;;;;;;;;;;;;;;;5067872;28;20021;-49
2021/11/02 20:12:03;;;;;;;;;;;;;;;;;;5075600;28;19912;-49
2021/11/02 20:14:29;;;;;;;;;;;;;;;;;;5072872;28;20040;-51
2021/11/02 20:16:55;;;;;;;;;;;;;;;;;;5074792;28;20575;-51
2021/11/02 20:19:21;;;;;;;;;;;;;;;;;;5087224;28;19911;-49
2021/11/02 20:21:48;;;;;;;;;;;;;;;;;;5073137;28;19908;-52
2021/11/02 20:24:14;;;;;;;;;;;;;;;;;;5075563;28;20445;-53
2021/11/02 20:26:40;;;;;;;;;;;;;;;;;;5087270;28;19907;-51
2021/11/02 20:29:06;;;;;;;;;;;;;;;;;;5086966;28;19900;-52
2021/11/02 20:31:32;;;;;;;;;;;;;;;;;;5085840;28;19907;-51
2021/11/02 20:33:57;;;;;;;;;;;;;;;;;;5072127;28;19994;-51
2021/11/02 20:36:23;;;;;;;;;;;;;;;;;;5066673;28;19904;-53
2021/11/02 20:38:49;;;;;;;;;;;;;;;;;;5092530;28;20419;-52
2021/11/02 20:41:15;;;;;;;;;;;;;;;;;;5098608;28;19961;-51
2021/11/02 20:43:41;;;;;;;;;;;;;;;;;;5082721;28;19912;-51
2021/11/02 20:46:08;;;;;;;;;;;;;;;;;;5066553;28;20403;-52
2021/11/02 20:48:34;;;;;;;;;;;;;;;;;;5066316;28;19905;-52
2021/11/02 20:51:00;;;;;;;;;;;;;;;;;;5076905;28;19972;-52
2021/11/02 20:53:25;;;;;;;;;;;;;;;;;;5093288;28;19907;-52
2021/11/02 20:55:51;;;;;;;;;;;;;;;;;;5107461;28;19915;-53
2021/11/02 20:58:17;;;;;;;;;;;;;;;;;;5069753;28;19912;-53
2021/11/02 21:00:43;;;;;;;;;;;;;;;;;;5066009;28;19912;-52
2021/11/02 21:03:09;;;;;;;;;;;;;;;;;;5070038;28;19922;-53
2021/11/02 21:05:35;;;;;;;;;;;;;;;;;;5086881;28;19904;-53
2021/11/02 21:08:01;;;;;;;;;;;;;;;;;;5072210;28;19908;-53
2021/11/02 21:10:27;;;;;;;;;;;;;;;;;;5071314;28;19962;-52
2021/11/02 21:12:54;;;;;;;;;;;;;;;;;;5066313;28;19982;-50
2021/11/02 21:15:20;;;;;;;;;;;;;;;;;;5068012;28;19909;-51
2021/11/02 21:17:46;;;;;;;;;;;;;;;;;;5065461;28;19931;-53
2021/11/02 21:20:12;;;;;;;;;;;;;;;;;;5070747;28;20501;-53
2021/11/02 21:22:38;;;;;;;;;;;;;;;;;;5076064;28;19908;-51
2021/11/02 21:25:04;;;;;;;;;;;;;;;;;;5066049;28;19913;-53
2021/11/02 21:27:30;;;;;;;;;;;;;;;;;;5082737;28;20370;-52
2021/11/02 21:29:56;;;;;;;;;;;;;;;;;;5082372;28;19908;-53
2021/11/02 21:32:22;;;;;;;;;;;;;;;;;;5066347;28;19935;-51
2021/11/02 21:34:48;;;;;;;;;;;;;;;;;;5085083;28;20332;-54
2021/11/02 21:37:14;;;;;;;;;;;;;;;;;;5074138;28;20666;-51
2021/11/02 21:39:40;;;;;;;;;;;;;;;;;;5065801;28;19939;-50
2021/11/02 21:42:11;;;;;;;;;;;;;;;;;;5067390;28;19963;-53